sensor_id;sensor_type;location;lat;lon;timestamp;P1;durP1;ratioP1;P2;durP2;ratioP2
14247;SDS011;7208;49.826;6.004;2023-04-15T00:01:23;0.80;;;0.80;;
14247;SDS011;7208;49.826;6.004;2023-04-15T00:03:50;2.00;;;0.93;;
14247;SDS011;7208;49.826;6.004;2023-04-15T00:06:16;1.00;;;0.80;;
14247;SDS011;7208;49.826;6.004;2023-04-15T00:08:43;2.30;;;0.80;;
14247;SDS011;7208;49.826;6.004;2023-04-15T00:11:09;1.87;;;1.00;;
14247;SDS011;7208;49.826;6.004;2023-04-15T00:13:36;0.90;;;0.90;;
14247;SDS011;7208;49.826;6.004;2023-04-15T00:16:02;1.60;;;1.10;;
14247;SDS011;7208;49.826;6.004;2023-04-15T00:18:28;0.90;;;0.90;;
14247;SDS011;7208;49.826;6.004;2023-04-15T00:20:55;1.43;;;0.70;;
14247;SDS011;7208;49.826;6.004;2023-04-15T00:23:21;1.80;;;0.97;;
14247;SDS011;7208;49.826;6.004;2023-04-15T00:25:47;1.37;;;0.80;;
14247;SDS011;7208;49.826;6.004;2023-04-15T00:28:13;0.93;;;0.80;;
14247;SDS011;7208;49.826;6.004;2023-04-15T00:30:39;1.17;;;0.70;;
14247;SDS011;7208;49.826;6.004;2023-04-15T00:33:06;1.70;;;0.87;;
14247;SDS011;7208;49.826;6.004;2023-04-15T00:35:32;1.20;;;1.10;;
14247;SDS011;7208;49.826;6.004;2023-04-15T00:37:59;0.70;;;0.70;;
14247;SDS011;7208;49.826;6.004;2023-04-15T00:40:25;1.23;;;0.90;;
14247;SDS011;7208;49.826;6.004;2023-04-15T00:42:51;1.10;;;0.80;;
14247;SDS011;7208;49.826;6.004;2023-04-15T00:45:18;0.70;;;0.60;;
14247;SDS011;7208;49.826;6.004;2023-04-15T00:47:44;1.90;;;1.00;;
14247;SDS011;7208;49.826;6.004;2023-04-15T00:50:10;0.70;;;0.70;;
14247;SDS011;7208;49.826;6.004;2023-04-15T00:52:37;1.30;;;1.10;;
14247;SDS011;7208;49.826;6.004;2023-04-15T00:55:04;1.10;;;1.00;;
14247;SDS011;7208;49.826;6.004;2023-04-15T00:57:30;1.90;;;1.07;;
14247;SDS011;7208;49.826;6.004;2023-04-15T00:59:57;4.50;;;1.10;;
14247;SDS011;7208;49.826;6.004;2023-04-15T01:02:23;1.30;;;1.20;;
14247;SDS011;7208;49.826;6.004;2023-04-15T01:04:49;1.93;;;1.20;;
14247;SDS011;7208;49.826;6.004;2023-04-15T01:07:16;1.33;;;0.97;;
14247;SDS011;7208;49.826;6.004;2023-04-15T01:09:42;1.07;;;1.00;;
14247;SDS011;7208;49.826;6.004;2023-04-15T01:12:11;1.40;;;1.30;;
14247;SDS011;7208;49.826;6.004;2023-04-15T01:14:38;2.33;;;1.17;;
14247;SDS011;7208;49.826;6.004;2023-04-15T01:17:04;2.17;;;0.93;;
14247;SDS011;7208;49.826;6.004;2023-04-15T01:19:30;1.60;;;0.80;;
14247;SDS011;7208;49.826;6.004;2023-04-15T01:21:56;1.30;;;1.00;;
14247;SDS011;7208;49.826;6.004;2023-04-15T01:24:22;0.90;;;0.90;;
14247;SDS011;7208;49.826;6.004;2023-04-15T01:26:48;1.83;;;1.10;;
14247;SDS011;7208;49.826;6.004;2023-04-15T01:29:15;1.23;;;0.90;;
14247;SDS011;7208;49.826;6.004;2023-04-15T01:31:48;0.73;;;0.70;;
14247;SDS011;7208;49.826;6.004;2023-04-15T01:34:14;1.27;;;0.97;;
14247;SDS011;7208;49.826;6.004;2023-04-15T01:36:40;2.03;;;0.80;;
14247;SDS011;7208;49.826;6.004;2023-04-15T01:39:07;2.33;;;0.80;;
14247;SDS011;7208;49.826;6.004;2023-04-15T01:41:33;0.83;;;0.83;;
14247;SDS011;7208;49.826;6.004;2023-04-15T01:43:59;0.70;;;0.70;;
14247;SDS011;7208;49.826;6.004;2023-04-15T01:46:25;1.57;;;1.10;;
14247;SDS011;7208;49.826;6.004;2023-04-15T01:48:51;1.07;;;0.97;;
14247;SDS011;7208;49.826;6.004;2023-04-15T01:51:17;1.77;;;1.20;;
14247;SDS011;7208;49.826;6.004;2023-04-15T01:53:43;1.43;;;1.20;;
14247;SDS011;7208;49.826;6.004;2023-04-15T01:56:10;1.93;;;1.10;;
14247;SDS011;7208;49.826;6.004;2023-04-15T01:58:36;1.87;;;1.40;;
14247;SDS011;7208;49.826;6.004;2023-04-15T02:01:02;1.00;;;0.90;;
14247;SDS011;7208;49.826;6.004;2023-04-15T02:03:28;3.57;;;1.00;;
14247;SDS011;7208;49.826;6.004;2023-04-15T02:05:54;1.17;;;1.03;;
14247;SDS011;7208;49.826;6.004;2023-04-15T02:08:20;1.47;;;1.17;;
14247;SDS011;7208;49.826;6.004;2023-04-15T02:10:46;2.83;;;1.10;;
14247;SDS011;7208;49.826;6.004;2023-04-15T02:13:13;1.07;;;1.00;;
14247;SDS011;7208;49.826;6.004;2023-04-15T02:15:39;1.67;;;1.20;;
14247;SDS011;7208;49.826;6.004;2023-04-15T02:18:05;0.97;;;0.77;;
14247;SDS011;7208;49.826;6.004;2023-04-15T02:20:31;0.80;;;0.80;;
14247;SDS011;7208;49.826;6.004;2023-04-15T02:22:58;1.90;;;1.00;;
14247;SDS011;7208;49.826;6.004;2023-04-15T02:25:24;1.40;;;1.20;;
14247;SDS011;7208;49.826;6.004;2023-04-15T02:27:50;1.57;;;1.30;;
14247;SDS011;7208;49.826;6.004;2023-04-15T02:30:17;4.03;;;1.30;;
14247;SDS011;7208;49.826;6.004;2023-04-15T02:32:43;1.27;;;1.17;;
14247;SDS011;7208;49.826;6.004;2023-04-15T02:35:09;1.70;;;1.10;;
14247;SDS011;7208;49.826;6.004;2023-04-15T02:37:36;2.67;;;1.30;;
14247;SDS011;7208;49.826;6.004;2023-04-15T02:40:08;1.17;;;1.00;;
14247;SDS011;7208;49.826;6.004;2023-04-15T02:42:36;1.30;;;1.20;;
14247;SDS011;7208;49.826;6.004;2023-04-15T02:45:02;0.87;;;0.87;;
14247;SDS011;7208;49.826;6.004;2023-04-15T02:47:28;1.93;;;0.93;;
14247;SDS011;7208;49.826;6.004;2023-04-15T02:49:54;2.00;;;0.77;;
14247;SDS011;7208;49.826;6.004;2023-04-15T02:52:22;0.93;;;0.87;;
14247;SDS011;7208;49.826;6.004;2023-04-15T02:54:48;1.53;;;0.80;;
14247;SDS011;7208;49.826;6.004;2023-04-15T02:57:14;0.80;;;0.80;;
14247;SDS011;7208;49.826;6.004;2023-04-15T02:59:40;1.20;;;1.10;;
14247;SDS011;7208;49.826;6.004;2023-04-15T03:02:06;0.70;;;0.70;;
14247;SDS011;7208;49.826;6.004;2023-04-15T03:04:32;2.10;;;0.83;;
14247;SDS011;7208;49.826;6.004;2023-04-15T03:06:59;0.73;;;0.73;;
14247;SDS011;7208;49.826;6.004;2023-04-15T03:09:25;0.80;;;0.80;;
14247;SDS011;7208;49.826;6.004;2023-04-15T03:11:51;1.13;;;0.90;;
14247;SDS011;7208;49.826;6.004;2023-04-15T03:14:18;0.80;;;0.80;;
14247;SDS011;7208;49.826;6.004;2023-04-15T03:16:44;4.13;;;0.87;;
14247;SDS011;7208;49.826;6.004;2023-04-15T03:19:10;0.90;;;0.90;;
14247;SDS011;7208;49.826;6.004;2023-04-15T03:21:36;3.50;;;1.07;;
14247;SDS011;7208;49.826;6.004;2023-04-15T03:24:02;1.33;;;0.83;;
14247;SDS011;7208;49.826;6.004;2023-04-15T03:26:29;0.97;;;0.97;;
14247;SDS011;7208;49.826;6.004;2023-04-15T03:28:56;1.00;;;0.90;;
14247;SDS011;7208;49.826;6.004;2023-04-15T03:31:22;1.20;;;0.90;;
14247;SDS011;7208;49.826;6.004;2023-04-15T03:33:48;0.90;;;0.90;;
14247;SDS011;7208;49.826;6.004;2023-04-15T03:36:14;0.80;;;0.80;;
14247;SDS011;7208;49.826;6.004;2023-04-15T03:38:40;2.03;;;1.40;;
14247;SDS011;7208;49.826;6.004;2023-04-15T03:41:06;1.10;;;0.90;;
14247;SDS011;7208;49.826;6.004;2023-04-15T03:43:33;0.87;;;0.87;;
14247;SDS011;7208;49.826;6.004;2023-04-15T03:45:59;1.87;;;1.10;;
14247;SDS011;7208;49.826;6.004;2023-04-15T03:48:25;1.10;;;1.00;;
14247;SDS011;7208;49.826;6.004;2023-04-15T03:50:51;3.00;;;1.47;;
14247;SDS011;7208;49.826;6.004;2023-04-15T03:53:17;4.77;;;1.03;;
14247;SDS011;7208;49.826;6.004;2023-04-15T03:55:43;1.23;;;1.03;;
14247;SDS011;7208;49.826;6.004;2023-04-15T03:58:09;0.80;;;0.70;;
14247;SDS011;7208;49.826;6.004;2023-04-15T04:00:37;1.47;;;1.03;;
14247;SDS011;7208;49.826;6.004;2023-04-15T04:03:03;1.67;;;0.90;;
14247;SDS011;7208;49.826;6.004;2023-04-15T04:05:29;1.90;;;0.90;;
14247;SDS011;7208;49.826;6.004;2023-04-15T04:07:55;2.40;;;1.40;;
14247;SDS011;7208;49.826;6.004;2023-04-15T04:10:21;1.13;;;1.10;;
14247;SDS011;7208;49.826;6.004;2023-04-15T04:12:47;1.20;;;0.80;;
14247;SDS011;7208;49.826;6.004;2023-04-15T04:15:13;1.07;;;0.83;;
14247;SDS011;7208;49.826;6.004;2023-04-15T04:17:39;0.80;;;0.80;;
14247;SDS011;7208;49.826;6.004;2023-04-15T04:20:06;1.37;;;0.77;;
14247;SDS011;7208;49.826;6.004;2023-04-15T04:22:36;1.43;;;0.70;;
14247;SDS011;7208;49.826;6.004;2023-04-15T04:25:03;1.47;;;1.00;;
14247;SDS011;7208;49.826;6.004;2023-04-15T04:27:29;1.33;;;0.90;;
14247;SDS011;7208;49.826;6.004;2023-04-15T04:29:55;1.87;;;0.80;;
14247;SDS011;7208;49.826;6.004;2023-04-15T04:32:21;1.57;;;1.20;;
14247;SDS011;7208;49.826;6.004;2023-04-15T04:34:47;3.73;;;1.37;;
14247;SDS011;7208;49.826;6.004;2023-04-15T04:37:13;1.70;;;1.00;;
14247;SDS011;7208;49.826;6.004;2023-04-15T04:39:40;1.40;;;1.00;;
14247;SDS011;7208;49.826;6.004;2023-04-15T04:42:06;1.47;;;0.80;;
14247;SDS011;7208;49.826;6.004;2023-04-15T04:44:32;1.50;;;1.00;;
14247;SDS011;7208;49.826;6.004;2023-04-15T04:46:58;1.23;;;0.70;;
14247;SDS011;7208;49.826;6.004;2023-04-15T04:49:24;0.93;;;0.83;;
14247;SDS011;7208;49.826;6.004;2023-04-15T04:51:50;1.97;;;0.67;;
14247;SDS011;7208;49.826;6.004;2023-04-15T04:54:16;1.73;;;0.80;;
14247;SDS011;7208;49.826;6.004;2023-04-15T04:56:42;1.57;;;0.90;;
14247;SDS011;7208;49.826;6.004;2023-04-15T04:59:08;0.97;;;0.70;;
14247;SDS011;7208;49.826;6.004;2023-04-15T05:01:34;1.43;;;0.90;;
14247;SDS011;7208;49.826;6.004;2023-04-15T05:04:00;1.03;;;0.90;;
14247;SDS011;7208;49.826;6.004;2023-04-15T05:06:27;0.93;;;0.90;;
14247;SDS011;7208;49.826;6.004;2023-04-15T05:08:54;1.87;;;0.70;;
14247;SDS011;7208;49.826;6.004;2023-04-15T05:11:20;1.63;;;0.93;;
14247;SDS011;7208;49.826;6.004;2023-04-15T05:13:46;1.63;;;1.00;;
14247;SDS011;7208;49.826;6.004;2023-04-15T05:16:12;1.13;;;0.93;;
14247;SDS011;7208;49.826;6.004;2023-04-15T05:18:38;0.60;;;0.60;;
14247;SDS011;7208;49.826;6.004;2023-04-15T05:21:04;1.37;;;0.70;;
14247;SDS011;7208;49.826;6.004;2023-04-15T05:23:31;0.60;;;0.60;;
14247;SDS011;7208;49.826;6.004;2023-04-15T05:25:57;0.77;;;0.77;;
14247;SDS011;7208;49.826;6.004;2023-04-15T05:28:23;2.27;;;0.80;;
14247;SDS011;7208;49.826;6.004;2023-04-15T05:30:49;0.87;;;0.70;;
14247;SDS011;7208;49.826;6.004;2023-04-15T05:33:15;0.90;;;0.90;;
14247;SDS011;7208;49.826;6.004;2023-04-15T05:35:41;0.90;;;0.90;;
14247;SDS011;7208;49.826;6.004;2023-04-15T05:38:07;0.87;;;0.80;;
14247;SDS011;7208;49.826;6.004;2023-04-15T05:40:33;1.33;;;0.60;;
14247;SDS011;7208;49.826;6.004;2023-04-15T05:42:59;1.27;;;0.80;;
14247;SDS011;7208;49.826;6.004;2023-04-15T05:45:25;1.80;;;0.97;;
14247;SDS011;7208;49.826;6.004;2023-04-15T05:47:51;0.83;;;0.70;;
14247;SDS011;7208;49.826;6.004;2023-04-15T05:50:18;0.80;;;0.70;;
14247;SDS011;7208;49.826;6.004;2023-04-15T05:52:44;0.87;;;0.70;;
14247;SDS011;7208;49.826;6.004;2023-04-15T05:55:10;0.70;;;0.70;;
14247;SDS011;7208;49.826;6.004;2023-04-15T05:57:37;1.53;;;1.10;;
14247;SDS011;7208;49.826;6.004;2023-04-15T06:00:03;1.23;;;1.10;;
14247;SDS011;7208;49.826;6.004;2023-04-15T06:02:29;0.87;;;0.80;;
14247;SDS011;7208;49.826;6.004;2023-04-15T06:04:56;1.17;;;0.93;;
14247;SDS011;7208;49.826;6.004;2023-04-15T06:07:22;0.83;;;0.80;;
14247;SDS011;7208;49.826;6.004;2023-04-15T06:09:48;3.87;;;1.00;;
14247;SDS011;7208;49.826;6.004;2023-04-15T06:12:14;1.67;;;0.70;;
14247;SDS011;7208;49.826;6.004;2023-04-15T06:14:41;1.10;;;0.80;;
14247;SDS011;7208;49.826;6.004;2023-04-15T06:17:07;1.27;;;1.00;;
14247;SDS011;7208;49.826;6.004;2023-04-15T06:19:33;1.30;;;0.93;;
14247;SDS011;7208;49.826;6.004;2023-04-15T06:22:01;2.73;;;0.97;;
14247;SDS011;7208;49.826;6.004;2023-04-15T06:24:27;0.83;;;0.80;;
14247;SDS011;7208;49.826;6.004;2023-04-15T06:26:53;1.07;;;0.97;;
14247;SDS011;7208;49.826;6.004;2023-04-15T06:29:19;1.33;;;1.23;;
14247;SDS011;7208;49.826;6.004;2023-04-15T06:31:46;0.90;;;0.90;;
14247;SDS011;7208;49.826;6.004;2023-04-15T06:34:12;0.90;;;0.90;;
14247;SDS011;7208;49.826;6.004;2023-04-15T06:36:38;1.10;;;0.90;;
14247;SDS011;7208;49.826;6.004;2023-04-15T06:39:04;1.07;;;0.70;;
14247;SDS011;7208;49.826;6.004;2023-04-15T06:41:30;1.70;;;1.00;;
14247;SDS011;7208;49.826;6.004;2023-04-15T06:43:56;0.80;;;0.80;;
14247;SDS011;7208;49.826;6.004;2023-04-15T06:46:22;2.07;;;1.00;;
14247;SDS011;7208;49.826;6.004;2023-04-15T06:48:48;1.37;;;0.90;;
14247;SDS011;7208;49.826;6.004;2023-04-15T06:51:14;0.90;;;0.83;;
14247;SDS011;7208;49.826;6.004;2023-04-15T06:53:40;1.30;;;0.70;;
14247;SDS011;7208;49.826;6.004;2023-04-15T06:56:07;1.30;;;0.90;;
14247;SDS011;7208;49.826;6.004;2023-04-15T06:58:34;0.90;;;0.80;;
14247;SDS011;7208;49.826;6.004;2023-04-15T07:01:00;0.70;;;0.70;;
14247;SDS011;7208;49.826;6.004;2023-04-15T07:03:27;1.00;;;0.90;;
14247;SDS011;7208;49.826;6.004;2023-04-15T07:05:53;1.83;;;1.00;;
14247;SDS011;7208;49.826;6.004;2023-04-15T07:08:19;1.40;;;0.77;;
14247;SDS011;7208;49.826;6.004;2023-04-15T07:10:45;2.23;;;0.77;;
14247;SDS011;7208;49.826;6.004;2023-04-15T07:13:12;2.63;;;0.80;;
14247;SDS011;7208;49.826;6.004;2023-04-15T07:15:38;0.70;;;0.70;;
14247;SDS011;7208;49.826;6.004;2023-04-15T07:18:04;0.90;;;0.60;;
14247;SDS011;7208;49.826;6.004;2023-04-15T07:20:30;1.80;;;0.90;;
14247;SDS011;7208;49.826;6.004;2023-04-15T07:22:56;1.80;;;0.97;;
14247;SDS011;7208;49.826;6.004;2023-04-15T07:25:23;0.60;;;0.60;;
14247;SDS011;7208;49.826;6.004;2023-04-15T07:27:49;1.67;;;0.80;;
14247;SDS011;7208;49.826;6.004;2023-04-15T07:30:16;2.13;;;0.90;;
14247;SDS011;7208;49.826;6.004;2023-04-15T07:32:42;2.50;;;0.80;;
14247;SDS011;7208;49.826;6.004;2023-04-15T07:35:08;0.93;;;0.70;;
14247;SDS011;7208;49.826;6.004;2023-04-15T07:37:35;1.00;;;0.73;;
14247;SDS011;7208;49.826;6.004;2023-04-15T07:40:01;1.03;;;0.53;;
14247;SDS011;7208;49.826;6.004;2023-04-15T07:42:28;2.30;;;0.90;;
14247;SDS011;7208;49.826;6.004;2023-04-15T07:44:55;2.13;;;0.70;;
14247;SDS011;7208;49.826;6.004;2023-04-15T07:47:22;2.83;;;0.80;;
14247;SDS011;7208;49.826;6.004;2023-04-15T07:49:47;2.03;;;0.80;;
14247;SDS011;7208;49.826;6.004;2023-04-15T07:52:15;1.13;;;0.60;;
14247;SDS011;7208;49.826;6.004;2023-04-15T07:54:41;0.73;;;0.60;;
14247;SDS011;7208;49.826;6.004;2023-04-15T07:57:07;0.90;;;0.70;;
14247;SDS011;7208;49.826;6.004;2023-04-15T07:59:33;2.07;;;0.73;;
14247;SDS011;7208;49.826;6.004;2023-04-15T08:01:59;0.80;;;0.50;;
14247;SDS011;7208;49.826;6.004;2023-04-15T08:04:26;1.13;;;1.00;;
14247;SDS011;7208;49.826;6.004;2023-04-15T08:06:52;1.70;;;0.60;;
14247;SDS011;7208;49.826;6.004;2023-04-15T08:09:18;1.30;;;0.77;;
14247;SDS011;7208;49.826;6.004;2023-04-15T08:11:47;1.43;;;0.73;;
14247;SDS011;7208;49.826;6.004;2023-04-15T08:14:13;0.93;;;0.63;;
14247;SDS011;7208;49.826;6.004;2023-04-15T08:16:39;1.40;;;0.83;;
14247;SDS011;7208;49.826;6.004;2023-04-15T08:19:05;1.33;;;0.70;;
14247;SDS011;7208;49.826;6.004;2023-04-15T08:21:31;2.33;;;1.10;;
14247;SDS011;7208;49.826;6.004;2023-04-15T08:23:57;1.90;;;1.03;;
14247;SDS011;7208;49.826;6.004;2023-04-15T08:26:24;1.33;;;0.97;;
14247;SDS011;7208;49.826;6.004;2023-04-15T08:28:50;0.73;;;0.73;;
14247;SDS011;7208;49.826;6.004;2023-04-15T08:31:17;1.20;;;1.00;;
14247;SDS011;7208;49.826;6.004;2023-04-15T08:33:43;1.80;;;0.80;;
14247;SDS011;7208;49.826;6.004;2023-04-15T08:36:09;1.73;;;1.10;;
14247;SDS011;7208;49.826;6.004;2023-04-15T08:38:36;1.90;;;0.97;;
14247;SDS011;7208;49.826;6.004;2023-04-15T08:41:15;1.83;;;0.90;;
14247;SDS011;7208;49.826;6.004;2023-04-15T08:44:04;2.23;;;1.33;;
14247;SDS011;7208;49.826;6.004;2023-04-15T08:46:29;2.77;;;1.30;;
14247;SDS011;7208;49.826;6.004;2023-04-15T08:48:56;1.90;;;1.00;;
14247;SDS011;7208;49.826;6.004;2023-04-15T08:51:23;1.87;;;1.10;;
14247;SDS011;7208;49.826;6.004;2023-04-15T08:53:49;1.43;;;0.93;;
14247;SDS011;7208;49.826;6.004;2023-04-15T08:56:15;2.03;;;1.13;;
14247;SDS011;7208;49.826;6.004;2023-04-15T08:58:43;1.60;;;1.10;;
14247;SDS011;7208;49.826;6.004;2023-04-15T09:01:12;1.73;;;1.03;;
14247;SDS011;7208;49.826;6.004;2023-04-15T09:03:39;1.73;;;1.27;;
14247;SDS011;7208;49.826;6.004;2023-04-15T09:06:05;1.43;;;0.90;;
14247;SDS011;7208;49.826;6.004;2023-04-15T09:08:32;1.93;;;1.00;;
14247;SDS011;7208;49.826;6.004;2023-04-15T09:11:03;1.83;;;0.90;;
14247;SDS011;7208;49.826;6.004;2023-04-15T09:13:30;1.47;;;1.17;;
14247;SDS011;7208;49.826;6.004;2023-04-15T09:15:56;1.00;;;0.77;;
14247;SDS011;7208;49.826;6.004;2023-04-15T09:18:26;1.03;;;0.70;;
14247;SDS011;7208;49.826;6.004;2023-04-15T09:20:53;1.00;;;0.83;;
14247;SDS011;7208;49.826;6.004;2023-04-15T09:23:19;1.63;;;0.87;;
14247;SDS011;7208;49.826;6.004;2023-04-15T09:25:45;0.83;;;0.67;;
14247;SDS011;7208;49.826;6.004;2023-04-15T09:28:13;1.73;;;0.93;;
14247;SDS011;7208;49.826;6.004;2023-04-15T09:30:41;1.77;;;0.97;;
14247;SDS011;7208;49.826;6.004;2023-04-15T09:33:13;1.20;;;0.77;;
14247;SDS011;7208;49.826;6.004;2023-04-15T09:35:39;0.90;;;0.53;;
14247;SDS011;7208;49.826;6.004;2023-04-15T09:38:06;0.60;;;0.60;;
14247;SDS011;7208;49.826;6.004;2023-04-15T09:40:33;1.00;;;0.70;;
14247;SDS011;7208;49.826;6.004;2023-04-15T09:43:00;1.80;;;0.80;;
14247;SDS011;7208;49.826;6.004;2023-04-15T09:45:26;1.13;;;0.60;;
14247;SDS011;7208;49.826;6.004;2023-04-15T09:47:53;0.53;;;0.50;;
14247;SDS011;7208;49.826;6.004;2023-04-15T09:50:19;0.93;;;0.63;;
14247;SDS011;7208;49.826;6.004;2023-04-15T09:52:46;1.10;;;0.70;;
14247;SDS011;7208;49.826;6.004;2023-04-15T09:55:12;0.80;;;0.50;;
14247;SDS011;7208;49.826;6.004;2023-04-15T09:57:40;1.10;;;0.60;;
14247;SDS011;7208;49.826;6.004;2023-04-15T10:00:08;1.20;;;0.50;;
14247;SDS011;7208;49.826;6.004;2023-04-15T10:02:35;0.87;;;0.50;;
14247;SDS011;7208;49.826;6.004;2023-04-15T10:05:01;0.53;;;0.30;;
14247;SDS011;7208;49.826;6.004;2023-04-15T10:07:28;1.33;;;0.40;;
14247;SDS011;7208;49.826;6.004;2023-04-15T10:09:54;2.10;;;0.80;;
14247;SDS011;7208;49.826;6.004;2023-04-15T10:12:21;1.40;;;0.40;;
14247;SDS011;7208;49.826;6.004;2023-04-15T10:14:48;1.30;;;0.50;;
14247;SDS011;7208;49.826;6.004;2023-04-15T10:17:17;1.13;;;0.50;;
14247;SDS011;7208;49.826;6.004;2023-04-15T10:19:46;1.57;;;0.70;;
14247;SDS011;7208;49.826;6.004;2023-04-15T10:22:13;1.00;;;0.70;;
14247;SDS011;7208;49.826;6.004;2023-04-15T10:24:39;1.03;;;0.47;;
14247;SDS011;7208;49.826;6.004;2023-04-15T10:27:05;1.37;;;0.70;;
14247;SDS011;7208;49.826;6.004;2023-04-15T10:29:31;1.10;;;0.40;;
14247;SDS011;7208;49.826;6.004;2023-04-15T10:31:58;1.13;;;0.60;;
14247;SDS011;7208;49.826;6.004;2023-04-15T10:34:24;1.33;;;0.60;;
14247;SDS011;7208;49.826;6.004;2023-04-15T10:36:50;1.57;;;0.50;;
14247;SDS011;7208;49.826;6.004;2023-04-15T10:42:08;0.80;;;0.60;;
14247;SDS011;7208;49.826;6.004;2023-04-15T10:44:35;2.43;;;1.07;;
14247;SDS011;7208;49.826;6.004;2023-04-15T10:47:05;1.23;;;0.70;;
14247;SDS011;7208;49.826;6.004;2023-04-15T10:49:32;1.00;;;0.50;;
14247;SDS011;7208;49.826;6.004;2023-04-15T10:51:58;0.47;;;0.47;;
14247;SDS011;7208;49.826;6.004;2023-04-15T10:56:51;1.10;;;0.50;;
14247;SDS011;7208;49.826;6.004;2023-04-15T10:59:38;0.53;;;0.40;;
14247;SDS011;7208;49.826;6.004;2023-04-15T11:05:05;0.80;;;0.50;;
14247;SDS011;7208;49.826;6.004;2023-04-15T11:12:46;0.83;;;0.40;;
14247;SDS011;7208;49.826;6.004;2023-04-15T11:23:13;0.93;;;0.60;;
14247;SDS011;7208;49.826;6.004;2023-04-15T11:25:39;1.33;;;0.60;;
14247;SDS011;7208;49.826;6.004;2023-04-15T11:28:06;1.10;;;0.60;;
14247;SDS011;7208;49.826;6.004;2023-04-15T11:30:33;0.57;;;0.50;;
14247;SDS011;7208;49.826;6.004;2023-04-15T11:33:00;2.10;;;0.83;;
14247;SDS011;7208;49.826;6.004;2023-04-15T11:35:27;1.20;;;0.70;;
14247;SDS011;7208;49.826;6.004;2023-04-15T11:37:53;1.10;;;0.60;;
14247;SDS011;7208;49.826;6.004;2023-04-15T11:40:23;1.30;;;0.70;;
14247;SDS011;7208;49.826;6.004;2023-04-15T11:45:34;0.83;;;0.80;;
14247;SDS011;7208;49.826;6.004;2023-04-15T11:48:10;1.43;;;0.70;;
14247;SDS011;7208;49.826;6.004;2023-04-15T11:50:36;1.10;;;0.70;;
14247;SDS011;7208;49.826;6.004;2023-04-15T11:53:05;1.43;;;1.00;;
14247;SDS011;7208;49.826;6.004;2023-04-15T11:55:39;1.20;;;0.90;;
14247;SDS011;7208;49.826;6.004;2023-04-15T12:00:36;1.10;;;0.90;;
14247;SDS011;7208;49.826;6.004;2023-04-15T12:03:16;1.23;;;0.70;;
14247;SDS011;7208;49.826;6.004;2023-04-15T12:11:16;0.77;;;0.53;;
14247;SDS011;7208;49.826;6.004;2023-04-15T12:13:43;2.83;;;0.83;;
14247;SDS011;7208;49.826;6.004;2023-04-15T12:16:09;0.90;;;0.70;;
14247;SDS011;7208;49.826;6.004;2023-04-15T12:18:38;0.50;;;0.50;;
14247;SDS011;7208;49.826;6.004;2023-04-15T12:21:10;1.73;;;1.30;;
14247;SDS011;7208;49.826;6.004;2023-04-15T12:23:37;0.73;;;0.57;;
14247;SDS011;7208;49.826;6.004;2023-04-15T12:26:04;0.93;;;0.50;;
14247;SDS011;7208;49.826;6.004;2023-04-15T12:28:33;0.40;;;0.40;;
14247;SDS011;7208;49.826;6.004;2023-04-15T12:31:05;0.63;;;0.60;;
14247;SDS011;7208;49.826;6.004;2023-04-15T12:33:33;0.50;;;0.50;;
14247;SDS011;7208;49.826;6.004;2023-04-15T12:35:59;0.70;;;0.53;;
14247;SDS011;7208;49.826;6.004;2023-04-15T12:38:25;0.50;;;0.50;;
14247;SDS011;7208;49.826;6.004;2023-04-15T12:40:52;0.50;;;0.50;;
14247;SDS011;7208;49.826;6.004;2023-04-15T12:43:18;0.80;;;0.60;;
14247;SDS011;7208;49.826;6.004;2023-04-15T12:45:44;0.70;;;0.70;;
14247;SDS011;7208;49.826;6.004;2023-04-15T12:48:10;0.60;;;0.60;;
14247;SDS011;7208;49.826;6.004;2023-04-15T12:50:36;0.70;;;0.63;;
14247;SDS011;7208;49.826;6.004;2023-04-15T12:53:02;1.47;;;0.60;;
14247;SDS011;7208;49.826;6.004;2023-04-15T12:55:28;0.60;;;0.60;;
14247;SDS011;7208;49.826;6.004;2023-04-15T12:57:55;0.90;;;0.60;;
14247;SDS011;7208;49.826;6.004;2023-04-15T13:00:21;0.67;;;0.50;;
14247;SDS011;7208;49.826;6.004;2023-04-15T13:02:47;2.23;;;0.93;;
14247;SDS011;7208;49.826;6.004;2023-04-15T13:05:14;1.47;;;0.80;;
14247;SDS011;7208;49.826;6.004;2023-04-15T13:07:40;0.80;;;0.60;;
14247;SDS011;7208;49.826;6.004;2023-04-15T13:10:06;0.50;;;0.50;;
14247;SDS011;7208;49.826;6.004;2023-04-15T13:12:33;0.60;;;0.60;;
14247;SDS011;7208;49.826;6.004;2023-04-15T13:15:05;0.63;;;0.63;;
14247;SDS011;7208;49.826;6.004;2023-04-15T13:17:31;1.33;;;0.60;;
14247;SDS011;7208;49.826;6.004;2023-04-15T13:19:57;0.50;;;0.50;;
14247;SDS011;7208;49.826;6.004;2023-04-15T13:22:23;0.60;;;0.60;;
14247;SDS011;7208;49.826;6.004;2023-04-15T13:24:49;0.70;;;0.70;;
14247;SDS011;7208;49.826;6.004;2023-04-15T13:27:16;0.57;;;0.50;;
14247;SDS011;7208;49.826;6.004;2023-04-15T13:29:42;0.57;;;0.50;;
14247;SDS011;7208;49.826;6.004;2023-04-15T13:32:08;0.80;;;0.50;;
14247;SDS011;7208;49.826;6.004;2023-04-15T13:34:34;0.80;;;0.50;;
14247;SDS011;7208;49.826;6.004;2023-04-15T13:37:06;0.40;;;0.40;;
14247;SDS011;7208;49.826;6.004;2023-04-15T13:39:32;1.63;;;0.57;;
14247;SDS011;7208;49.826;6.004;2023-04-15T13:41:59;0.90;;;0.43;;
14247;SDS011;7208;49.826;6.004;2023-04-15T13:44:25;0.50;;;0.50;;
14247;SDS011;7208;49.826;6.004;2023-04-15T13:46:51;0.80;;;0.50;;
14247;SDS011;7208;49.826;6.004;2023-04-15T13:49:17;1.00;;;0.43;;
14247;SDS011;7208;49.826;6.004;2023-04-15T13:51:43;0.83;;;0.50;;
14247;SDS011;7208;49.826;6.004;2023-04-15T13:54:09;0.40;;;0.40;;
14247;SDS011;7208;49.826;6.004;2023-04-15T13:56:35;0.43;;;0.43;;
14247;SDS011;7208;49.826;6.004;2023-04-15T13:59:01;0.67;;;0.67;;
14247;SDS011;7208;49.826;6.004;2023-04-15T14:01:28;0.90;;;0.60;;
14247;SDS011;7208;49.826;6.004;2023-04-15T14:03:54;0.50;;;0.50;;
14247;SDS011;7208;49.826;6.004;2023-04-15T14:06:20;0.83;;;0.50;;
14247;SDS011;7208;49.826;6.004;2023-04-15T14:08:46;0.67;;;0.60;;
14247;SDS011;7208;49.826;6.004;2023-04-15T14:11:12;0.60;;;0.60;;
14247;SDS011;7208;49.826;6.004;2023-04-15T14:13:38;0.80;;;0.70;;
14247;SDS011;7208;49.826;6.004;2023-04-15T14:16:04;0.53;;;0.53;;
14247;SDS011;7208;49.826;6.004;2023-04-15T14:18:31;0.53;;;0.50;;
14247;SDS011;7208;49.826;6.004;2023-04-15T14:20:57;0.40;;;0.40;;
14247;SDS011;7208;49.826;6.004;2023-04-15T14:23:24;0.53;;;0.40;;
14247;SDS011;7208;49.826;6.004;2023-04-15T14:25:50;0.40;;;0.40;;
14247;SDS011;7208;49.826;6.004;2023-04-15T14:28:16;0.53;;;0.53;;
14247;SDS011;7208;49.826;6.004;2023-04-15T14:30:42;1.40;;;0.57;;
14247;SDS011;7208;49.826;6.004;2023-04-15T14:33:08;0.33;;;0.30;;
14247;SDS011;7208;49.826;6.004;2023-04-15T14:35:34;0.30;;;0.30;;
14247;SDS011;7208;49.826;6.004;2023-04-15T14:38:00;0.53;;;0.23;;
14247;SDS011;7208;49.826;6.004;2023-04-15T14:40:26;0.30;;;0.30;;
14247;SDS011;7208;49.826;6.004;2023-04-15T14:42:52;0.63;;;0.47;;
14247;SDS011;7208;49.826;6.004;2023-04-15T14:45:18;0.40;;;0.40;;
14247;SDS011;7208;49.826;6.004;2023-04-15T14:47:44;0.50;;;0.40;;
14247;SDS011;7208;49.826;6.004;2023-04-15T14:50:10;0.67;;;0.50;;
14247;SDS011;7208;49.826;6.004;2023-04-15T14:52:36;0.40;;;0.40;;
14247;SDS011;7208;49.826;6.004;2023-04-15T14:55:11;0.50;;;0.50;;
14247;SDS011;7208;49.826;6.004;2023-04-15T14:57:38;0.67;;;0.40;;
14247;SDS011;7208;49.826;6.004;2023-04-15T15:00:04;0.80;;;0.30;;
14247;SDS011;7208;49.826;6.004;2023-04-15T15:02:31;0.30;;;0.30;;
14247;SDS011;7208;49.826;6.004;2023-04-15T15:04:57;1.30;;;0.50;;
14247;SDS011;7208;49.826;6.004;2023-04-15T15:07:23;0.37;;;0.37;;
14247;SDS011;7208;49.826;6.004;2023-04-15T15:09:49;0.53;;;0.33;;
14247;SDS011;7208;49.826;6.004;2023-04-15T15:12:16;0.50;;;0.50;;
14247;SDS011;7208;49.826;6.004;2023-04-15T15:14:42;0.40;;;0.40;;
14247;SDS011;7208;49.826;6.004;2023-04-15T15:17:08;0.40;;;0.40;;
14247;SDS011;7208;49.826;6.004;2023-04-15T15:19:34;0.30;;;0.30;;
14247;SDS011;7208;49.826;6.004;2023-04-15T15:22:01;0.67;;;0.30;;
14247;SDS011;7208;49.826;6.004;2023-04-15T15:24:27;1.37;;;0.20;;
14247;SDS011;7208;49.826;6.004;2023-04-15T15:26:54;0.40;;;0.30;;
14247;SDS011;7208;49.826;6.004;2023-04-15T15:29:21;0.30;;;0.30;;